createdAt,value
2023-02-15T00:02:02.275Z,41.93
2023-02-15T00:04:46.916Z,42.09
2023-02-15T00:07:18.240Z,41.71
2023-02-15T00:09:47.284Z,41.70
2023-02-15T00:12:14.705Z,41.88
2023-02-15T00:14:41.227Z,41.72
2023-02-15T00:17:07.823Z,41.54
2023-02-15T00:19:34.637Z,42.56
2023-02-15T00:22:01.260Z,41.28
2023-02-15T00:24:28.042Z,42.88
2023-02-15T00:26:54.615Z,42.90
2023-02-15T00:29:21.571Z,43.72
2023-02-15T00:31:49.114Z,43.63
2023-02-15T00:34:18.749Z,44.48
2023-02-15T00:36:45.977Z,45.31
2023-02-15T00:39:12.871Z,44.05
2023-02-15T00:41:39.935Z,43.97
2023-02-15T00:44:07.734Z,43.26
2023-02-15T00:46:34.728Z,41.70
2023-02-15T00:49:01.782Z,41.26
2023-02-15T00:51:28.442Z,41.26
2023-02-15T00:53:55.031Z,41.18
2023-02-15T00:56:22.147Z,40.89
2023-02-15T00:58:48.681Z,39.06
2023-02-15T01:01:18.737Z,39.12
2023-02-15T01:03:47.465Z,37.68
2023-02-15T01:06:16.988Z,37.80
2023-02-15T01:08:46.690Z,37.13
2023-02-15T01:11:22.983Z,36.93
2023-02-15T01:13:56.140Z,35.29
2023-02-15T01:16:24.904Z,36.50
2023-02-15T01:18:51.957Z,35.91
2023-02-15T01:21:21.170Z,34.74
2023-02-15T01:23:48.522Z,34.96
2023-02-15T01:26:16.186Z,35.23
2023-02-15T01:28:43.052Z,34.67
2023-02-15T01:31:12.914Z,35.05
2023-02-15T01:33:39.851Z,34.50
2023-02-15T01:36:07.160Z,34.40
2023-02-15T01:38:36.047Z,33.42
2023-02-15T01:41:21.008Z,33.25
2023-02-15T01:43:53.950Z,34.79
2023-02-15T01:46:27.235Z,33.66
2023-02-15T01:49:12.603Z,34.18
2023-02-15T01:51:44.442Z,33.68
2023-02-15T01:54:17.849Z,32.79
2023-02-15T01:56:44.682Z,32.82
2023-02-15T01:59:20.808Z,31.74
2023-02-15T02:01:47.837Z,32.96
2023-02-15T02:04:21.556Z,32.97
2023-02-15T02:06:51.570Z,32.71
2023-02-15T02:09:18.188Z,32.92
2023-02-15T02:11:48.264Z,32.29
2023-02-15T02:14:16.438Z,32.10
2023-02-15T02:16:58.036Z,32.62
2023-02-15T02:19:46.755Z,32.38
2023-02-15T02:22:56.001Z,32.16
2023-02-15T02:25:50.228Z,31.88
2023-02-15T02:28:22.892Z,32.08
2023-02-15T02:30:52.539Z,31.85
2023-02-15T02:34:00.537Z,31.55
2023-02-15T02:36:47.120Z,31.51
2023-02-15T02:39:41.927Z,31.37
2023-02-15T02:42:35.613Z,32.24
2023-02-15T02:45:21.785Z,32.02
2023-02-15T02:48:04.530Z,31.96
2023-02-15T02:50:31.840Z,31.47
2023-02-15T02:53:00.040Z,32.24
2023-02-15T02:55:52.212Z,31.89
2023-02-15T02:58:30.530Z,32.10
2023-02-15T03:01:22.512Z,31.18
2023-02-15T03:04:02.165Z,31.55
2023-02-15T03:06:39.916Z,31.48
2023-02-15T03:09:17.918Z,31.04
2023-02-15T03:11:46.172Z,31.54
2023-02-15T03:14:19.152Z,31.34
2023-02-15T03:16:51.240Z,31.42
2023-02-15T03:19:25.977Z,31.63
2023-02-15T03:21:58.938Z,31.24
2023-02-15T03:24:36.657Z,31.34
2023-02-15T03:27:13.265Z,31.39
2023-02-15T03:29:40.962Z,30.84
2023-02-15T03:32:12.240Z,31.47
2023-02-15T03:34:39.105Z,31.20
2023-02-15T03:37:12.552Z,31.34
2023-02-15T03:39:43.107Z,31.68
2023-02-15T03:42:32.892Z,30.95
2023-02-15T03:45:11.666Z,31.49
2023-02-15T03:47:51.118Z,31.74
2023-02-15T03:50:43.871Z,31.95
2023-02-15T03:53:15.805Z,31.83
2023-02-15T03:55:42.436Z,31.35
2023-02-15T03:58:27.786Z,31.20
2023-02-15T04:01:21.824Z,31.58
2023-02-15T04:04:07.420Z,32.42
2023-02-15T04:06:34.258Z,31.78
2023-02-15T04:09:19.803Z,32.65
2023-02-15T04:11:46.399Z,32.85
2023-02-15T04:14:31.505Z,32.73
2023-02-15T04:16:58.094Z,32.72
2023-02-15T04:19:43.167Z,32.98
2023-02-15T04:22:28.116Z,33.08
2023-02-15T04:25:13.446Z,32.96
2023-02-15T04:27:52.050Z,33.54
2023-02-15T04:30:21.918Z,34.14
2023-02-15T04:32:49.065Z,34.22
2023-02-15T04:35:16.264Z,34.49
2023-02-15T04:37:44.068Z,34.48
2023-02-15T04:40:13.711Z,33.92
2023-02-15T04:42:40.336Z,33.93
2023-02-15T04:45:07.487Z,34.34
2023-02-15T04:47:34.734Z,34.65
2023-02-15T04:50:01.263Z,34.19
2023-02-15T04:52:27.850Z,34.07
2023-02-15T04:54:54.469Z,33.97
2023-02-15T04:57:21.071Z,34.06
2023-02-15T04:59:47.654Z,34.24
2023-02-15T05:02:14.459Z,33.98
2023-02-15T05:04:40.966Z,34.47
2023-02-15T05:07:07.573Z,33.35
2023-02-15T05:09:34.258Z,34.15
2023-02-15T05:12:02.159Z,33.08
2023-02-15T05:14:28.828Z,33.18
2023-02-15T05:16:55.465Z,33.08
2023-02-15T05:19:24.122Z,33.49
2023-02-15T05:21:50.925Z,32.91
2023-02-15T05:24:36.142Z,32.86
2023-02-15T05:27:21.340Z,33.19
2023-02-15T05:29:47.933Z,32.31
2023-02-15T05:32:15.272Z,33.49
2023-02-15T05:34:42.151Z,32.95
2023-02-15T05:37:09.307Z,32.72
2023-02-15T05:39:35.874Z,32.49
2023-02-15T05:42:02.684Z,32.52
2023-02-15T05:44:29.241Z,31.63
2023-02-15T05:46:55.828Z,31.60
2023-02-15T05:49:22.702Z,31.91
2023-02-15T05:51:49.805Z,32.27
2023-02-15T05:54:16.341Z,32.27
2023-02-15T05:56:42.968Z,32.15
2023-02-15T05:59:09.584Z,33.15
2023-02-15T06:01:36.556Z,34.24
2023-02-15T06:04:03.354Z,35.09
2023-02-15T06:06:29.931Z,38.15
2023-02-15T06:08:56.542Z,38.01
2023-02-15T06:11:23.145Z,39.31
2023-02-15T06:13:49.680Z,38.31
2023-02-15T06:16:16.778Z,37.65
2023-02-15T06:18:43.918Z,35.60
2023-02-15T06:21:10.689Z,35.83
2023-02-15T06:23:37.299Z,34.96
2023-02-15T06:26:04.134Z,34.15
2023-02-15T06:28:30.896Z,34.87
2023-02-15T06:30:57.578Z,34.30
2023-02-15T06:33:25.331Z,33.00
2023-02-15T06:35:52.127Z,32.89
2023-02-15T06:38:18.752Z,31.75
2023-02-15T06:40:45.316Z,31.70
2023-02-15T06:43:11.903Z,31.79
2023-02-15T06:45:38.456Z,30.92
2023-02-15T06:48:07.780Z,30.65
2023-02-15T06:50:34.731Z,30.63
2023-02-15T06:53:01.422Z,30.77
2023-02-15T06:55:28.003Z,30.94
2023-02-15T06:57:54.665Z,30.52
2023-02-15T07:00:23.093Z,30.74
2023-02-15T07:02:57.018Z,31.17
2023-02-15T07:05:23.595Z,30.93
2023-02-15T07:07:50.258Z,30.12
2023-02-15T07:10:17.778Z,31.10
2023-02-15T07:12:45.275Z,30.39
2023-02-15T07:15:23.869Z,30.78
2023-02-15T07:17:51.011Z,30.38
2023-02-15T07:20:20.908Z,29.92
2023-02-15T07:22:48.699Z,30.75
2023-02-15T07:25:15.491Z,30.77
2023-02-15T07:27:42.085Z,30.56
2023-02-15T07:30:11.859Z,30.99
2023-02-15T07:32:58.456Z,30.55
2023-02-15T07:35:25.519Z,30.95
2023-02-15T07:37:53.965Z,30.70
2023-02-15T07:40:22.957Z,31.31
2023-02-15T07:42:49.654Z,29.66
2023-02-15T07:45:16.305Z,29.81
2023-02-15T07:47:42.814Z,29.94
2023-02-15T07:50:09.592Z,30.85
2023-02-15T07:52:36.139Z,31.43
2023-02-15T07:55:02.883Z,30.12
2023-02-15T07:57:29.541Z,31.28
2023-02-15T07:59:56.080Z,30.26
2023-02-15T08:02:22.778Z,29.56
2023-02-15T08:04:49.407Z,30.42
2023-02-15T08:07:15.953Z,30.18
2023-02-15T08:09:42.592Z,31.19
2023-02-15T08:12:09.151Z,31.92
2023-02-15T08:14:35.788Z,32.42
2023-02-15T08:17:05.787Z,31.85
2023-02-15T08:19:33.570Z,30.79
2023-02-15T08:22:05.884Z,32.50
2023-02-15T08:24:38.137Z,32.71
2023-02-15T08:27:06.869Z,32.49
2023-02-15T08:29:35.720Z,33.11
2023-02-15T08:32:06.070Z,33.06
2023-02-15T08:34:36.797Z,34.16
2023-02-15T08:37:03.346Z,35.25
2023-02-15T08:39:29.970Z,36.65
2023-02-15T08:41:56.729Z,36.59
2023-02-15T08:44:23.426Z,37.40
2023-02-15T08:46:51.084Z,36.49
2023-02-15T08:49:22.563Z,37.08
2023-02-15T08:51:50.873Z,37.17
2023-02-15T08:54:20.742Z,37.06
2023-02-15T08:56:47.747Z,37.72
2023-02-15T08:59:19.247Z,38.68
2023-02-15T09:01:46.783Z,38.56
2023-02-15T09:04:14.095Z,37.77
2023-02-15T09:06:42.488Z,38.08
2023-02-15T09:09:09.152Z,38.58
2023-02-15T09:11:38.948Z,38.38
2023-02-15T09:14:10.463Z,38.99
2023-02-15T09:16:38.810Z,38.66
2023-02-15T09:19:06.398Z,39.12
2023-02-15T09:21:35.987Z,39.43
2023-02-15T09:24:05.789Z,39.23
2023-02-15T09:26:35.563Z,40.26
2023-02-15T09:29:04.373Z,39.93
2023-02-15T09:31:39.807Z,40.80
2023-02-15T09:34:06.520Z,41.30
2023-02-15T09:36:36.786Z,41.71
2023-02-15T09:39:09.121Z,41.36
2023-02-15T09:42:12.961Z,41.51
2023-02-15T09:45:04.729Z,41.28
2023-02-15T09:47:38.030Z,42.03
2023-02-15T09:50:44.365Z,40.52
2023-02-15T09:53:29.375Z,41.75
2023-02-15T09:55:58.844Z,43.23
2023-02-15T09:58:51.723Z,42.45
2023-02-15T10:01:30.589Z,41.16
2023-02-15T10:04:20.909Z,41.95
2023-02-15T10:07:05.363Z,42.38
2023-02-15T10:09:43.641Z,42.85
2023-02-15T10:12:31.348Z,42.35
2023-02-15T10:14:58.005Z,41.60
2023-02-15T10:18:01.469Z,42.63
2023-02-15T10:20:45.293Z,42.22
2023-02-15T10:23:44.817Z,42.44
2023-02-15T10:26:19.341Z,41.76
2023-02-15T10:29:04.026Z,41.40
2023-02-15T10:31:46.009Z,41.91
2023-02-15T10:34:19.997Z,41.60
2023-02-15T10:37:05.398Z,41.18
2023-02-15T10:39:48.829Z,41.16
2023-02-15T10:42:29.519Z,40.97
2023-02-15T10:45:08.050Z,40.78
2023-02-15T10:48:05.697Z,39.93
2023-02-15T10:50:50.584Z,39.80
2023-02-15T10:53:52.394Z,40.89
2023-02-15T10:56:38.312Z,40.78
2023-02-15T10:59:16.964Z,45.98
2023-02-15T11:02:07.914Z,44.59
2023-02-15T11:04:34.445Z,44.82
2023-02-15T11:07:09.099Z,44.53
2023-02-15T11:09:49.284Z,40.33
2023-02-15T11:12:23.271Z,40.17
2023-02-15T11:15:30.616Z,42.51
2023-02-15T11:18:12.220Z,41.84
2023-02-15T11:20:56.633Z,40.65
2023-02-15T11:23:27.325Z,39.20
2023-02-15T11:26:28.773Z,39.67
2023-02-15T11:29:03.658Z,41.65
2023-02-15T11:31:44.754Z,41.99
2023-02-15T11:34:27.959Z,39.72
2023-02-15T11:37:02.286Z,40.47
2023-02-15T11:39:32.737Z,40.04
2023-02-15T11:42:13.309Z,40.52
2023-02-15T11:45:06.094Z,41.07
2023-02-15T11:47:34.998Z,39.98
2023-02-15T11:50:01.603Z,40.92
2023-02-15T11:52:28.257Z,40.34
2023-02-15T11:54:55.653Z,39.88
2023-02-15T11:57:37.545Z,40.81
2023-02-15T12:00:12.299Z,40.48
2023-02-15T12:02:44.258Z,41.31
2023-02-15T12:05:18.210Z,41.28
2023-02-15T12:08:10.553Z,41.55
2023-02-15T12:11:02.799Z,53.82
2023-02-15T12:13:30.983Z,49.35
2023-02-15T12:16:05.458Z,45.61
2023-02-15T12:18:45.708Z,44.49
2023-02-15T12:21:24.783Z,45.18
2023-02-15T12:23:55.093Z,46.07
2023-02-15T12:26:31.524Z,42.39
2023-02-15T12:29:23.681Z,42.35
2023-02-15T12:31:53.483Z,44.08
2023-02-15T12:34:30.663Z,44.46
2023-02-15T12:37:03.142Z,45.00
2023-02-15T12:39:32.984Z,44.00
2023-02-15T12:42:15.059Z,46.69
2023-02-15T12:44:58.174Z,45.62
2023-02-15T12:47:30.499Z,43.68
2023-02-15T12:50:12.612Z,43.37
2023-02-15T12:52:40.102Z,44.23
2023-02-15T12:55:33.344Z,43.17
2023-02-15T12:58:36.982Z,46.76
2023-02-15T13:01:09.582Z,44.06
2023-02-15T13:03:39.000Z,44.68
2023-02-15T13:06:08.315Z,43.83
2023-02-15T13:08:46.615Z,44.99
2023-02-15T13:11:13.679Z,42.40
2023-02-15T13:13:54.420Z,41.78
2023-02-15T13:16:38.219Z,41.78
2023-02-15T13:19:13.703Z,44.36
2023-02-15T13:21:45.014Z,45.65
2023-02-15T13:24:38.490Z,44.12
2023-02-15T13:27:15.373Z,44.85
2023-02-15T13:29:50.045Z,50.69
2023-02-15T13:32:31.014Z,49.11
2023-02-15T13:35:03.945Z,47.61
2023-02-15T13:37:50.026Z,48.66
2023-02-15T13:40:42.288Z,48.24
2023-02-15T13:43:25.937Z,44.66
2023-02-15T13:45:58.345Z,43.38
2023-02-15T13:48:45.796Z,46.39
2023-02-15T13:51:33.996Z,44.45
2023-02-15T13:54:10.417Z,44.92
2023-02-15T13:57:20.063Z,44.00
2023-02-15T14:00:04.993Z,43.58
2023-02-15T14:02:43.465Z,43.25
2023-02-15T14:05:31.915Z,43.54
2023-02-15T14:08:09.818Z,43.14
2023-02-15T14:11:00.825Z,44.28
2023-02-15T14:13:33.708Z,43.83
2023-02-15T14:16:42.564Z,43.90
2023-02-15T14:19:17.876Z,44.48
2023-02-15T14:21:50.542Z,43.32
2023-02-15T14:24:48.897Z,43.16
2023-02-15T14:27:37.641Z,43.28
2023-02-15T14:30:34.566Z,44.09
2023-02-15T14:33:08.525Z,43.84
2023-02-15T14:35:38.125Z,43.16
2023-02-15T14:38:10.469Z,42.81
2023-02-15T14:41:16.343Z,43.17
2023-02-15T14:44:24.696Z,42.61
2023-02-15T14:47:00.248Z,44.27
2023-02-15T14:49:36.564Z,43.44
2023-02-15T14:52:12.289Z,43.04
2023-02-15T14:54:38.808Z,44.56
2023-02-15T14:57:08.168Z,46.38
2023-02-15T14:59:46.874Z,45.83
2023-02-15T15:02:19.436Z,46.46
2023-02-15T15:05:01.237Z,44.79
2023-02-15T15:07:38.575Z,45.13
2023-02-15T15:10:36.248Z,45.22
2023-02-15T15:13:31.458Z,45.92
2023-02-15T15:16:26.644Z,44.54
2023-02-15T15:18:53.539Z,45.85
2023-02-15T15:21:51.115Z,45.71
2023-02-15T15:24:39.581Z,43.72
2023-02-15T15:27:38.495Z,42.73
2023-02-15T15:30:20.113Z,43.49
2023-02-15T15:32:58.566Z,43.97
2023-02-15T15:35:37.523Z,44.74
2023-02-15T15:38:35.873Z,43.48
2023-02-15T15:41:17.640Z,43.88
2023-02-15T15:44:22.035Z,44.42
2023-02-15T15:47:13.766Z,43.47
2023-02-15T15:49:41.870Z,43.88
2023-02-15T15:52:17.544Z,44.22
2023-02-15T15:54:47.230Z,45.32
2023-02-15T15:57:23.731Z,42.63
2023-02-15T15:59:50.743Z,44.74
2023-02-15T16:02:19.154Z,43.52
2023-02-15T16:04:48.000Z,43.87
2023-02-15T16:07:24.773Z,43.41
2023-02-15T16:10:04.013Z,44.23
2023-02-15T16:12:34.679Z,42.72
2023-02-15T16:15:15.418Z,42.55
2023-02-15T16:17:46.281Z,42.92
2023-02-15T16:20:21.135Z,48.07
2023-02-15T16:22:48.865Z,47.11
2023-02-15T16:25:32.372Z,43.95
2023-02-15T16:28:08.606Z,44.32
2023-02-15T16:30:37.491Z,43.97
2023-02-15T16:33:11.366Z,42.49
2023-02-15T16:35:41.796Z,43.40
2023-02-15T16:38:14.343Z,43.97
2023-02-15T16:40:56.503Z,48.75
2023-02-15T16:43:29.514Z,52.81
2023-02-15T16:46:08.070Z,54.61
2023-02-15T16:48:42.592Z,53.62
2023-02-15T16:51:10.396Z,52.40
2023-02-15T16:53:38.224Z,51.28
2023-02-15T16:56:06.599Z,49.86
2023-02-15T16:58:44.730Z,47.31
2023-02-15T17:01:15.513Z,46.32
2023-02-15T17:03:43.291Z,47.64
2023-02-15T17:06:30.343Z,46.52
2023-02-15T17:09:14.353Z,45.09
2023-02-15T17:11:43.446Z,46.37
2023-02-15T17:14:10.534Z,46.10
2023-02-15T17:16:50.618Z,46.64
2023-02-15T17:19:27.132Z,51.03
2023-02-15T17:22:07.663Z,53.27
2023-02-15T17:24:42.311Z,56.56
2023-02-15T17:27:31.956Z,55.39
2023-02-15T17:30:03.195Z,54.97
2023-02-15T17:32:33.059Z,51.14
2023-02-15T17:35:25.626Z,50.88
2023-02-15T17:38:16.072Z,48.45
2023-02-15T17:40:42.668Z,49.56
2023-02-15T17:43:09.252Z,49.91
2023-02-15T17:46:02.238Z,52.00
2023-02-15T17:48:36.488Z,51.88
2023-02-15T17:51:06.082Z,51.13
2023-02-15T17:53:33.726Z,51.65
2023-02-15T17:56:00.269Z,50.10
2023-02-15T17:58:26.789Z,50.19
2023-02-15T18:01:15.413Z,48.29
2023-02-15T18:04:09.956Z,48.73
2023-02-15T18:06:58.313Z,48.05
2023-02-15T18:09:44.618Z,48.39
2023-02-15T18:12:21.475Z,48.27
2023-02-15T18:14:48.678Z,48.91
2023-02-15T18:17:16.620Z,49.80
2023-02-15T18:19:45.806Z,52.58
2023-02-15T18:22:15.609Z,53.29
2023-02-15T18:24:42.815Z,51.41
2023-02-15T18:27:12.095Z,52.42
2023-02-15T18:29:39.229Z,52.82
2023-02-15T18:32:22.297Z,54.98
2023-02-15T18:34:49.522Z,55.56
2023-02-15T18:37:20.726Z,54.58
2023-02-15T18:39:49.705Z,52.66
2023-02-15T18:42:19.147Z,51.10
2023-02-15T18:44:45.779Z,49.77
2023-02-15T18:47:12.339Z,49.29
2023-02-15T18:49:38.933Z,50.04
2023-02-15T18:52:06.034Z,50.32
2023-02-15T18:54:32.635Z,50.40
2023-02-15T18:57:01.487Z,53.18
2023-02-15T18:59:30.395Z,54.42
2023-02-15T19:01:57.198Z,55.56
2023-02-15T19:04:25.827Z,56.35
2023-02-15T19:06:54.196Z,54.76
2023-02-15T19:09:24.325Z,54.49
2023-02-15T19:11:54.004Z,53.17
2023-02-15T19:14:28.751Z,52.43
2023-02-15T19:16:56.469Z,50.61
2023-02-15T19:19:23.832Z,51.00
2023-02-15T19:21:51.747Z,50.36
2023-02-15T19:24:25.685Z,49.53
2023-02-15T19:26:52.705Z,49.60
2023-02-15T19:29:29.545Z,50.75
2023-02-15T19:31:57.859Z,50.42
2023-02-15T19:34:24.656Z,50.74
2023-02-15T19:36:54.090Z,50.95
2023-02-15T19:39:33.624Z,50.84
2023-02-15T19:42:00.140Z,50.63
2023-02-15T19:44:26.768Z,48.99
2023-02-15T19:46:53.380Z,49.12
2023-02-15T19:49:19.983Z,48.52
2023-02-15T19:51:47.592Z,49.41
2023-02-15T19:54:35.937Z,49.22
2023-02-15T19:57:02.521Z,48.67
2023-02-15T19:59:32.894Z,49.20
2023-02-15T20:02:00.176Z,48.39
2023-02-15T20:04:27.381Z,48.03
2023-02-15T20:06:58.914Z,49.29
2023-02-15T20:09:30.383Z,48.03
2023-02-15T20:11:57.287Z,49.43
2023-02-15T20:14:24.528Z,47.89
2023-02-15T20:16:51.279Z,48.05
2023-02-15T20:19:17.861Z,47.98
2023-02-15T20:21:46.973Z,47.74
2023-02-15T20:24:17.300Z,47.81
2023-02-15T20:26:44.228Z,49.35
2023-02-15T20:29:15.755Z,48.88
2023-02-15T20:31:43.094Z,48.91
2023-02-15T20:34:10.592Z,49.65
2023-02-15T20:36:39.277Z,49.89
2023-02-15T20:39:20.248Z,50.77
2023-02-15T20:41:49.588Z,52.58
2023-02-15T20:44:21.524Z,53.77
2023-02-15T20:46:50.515Z,54.16
2023-02-15T20:49:17.193Z,52.27
2023-02-15T20:51:44.400Z,51.34
2023-02-15T20:54:21.266Z,49.59
2023-02-15T20:56:48.475Z,50.07
2023-02-15T20:59:25.821Z,49.73
2023-02-15T21:01:58.881Z,51.73
2023-02-15T21:04:31.410Z,50.18
2023-02-15T21:06:58.388Z,50.99
2023-02-15T21:09:24.969Z,50.43
2023-02-15T21:11:54.556Z,50.86
2023-02-15T21:14:24.587Z,51.10
2023-02-15T21:16:51.862Z,50.77
2023-02-15T21:19:23.578Z,50.82
2023-02-15T21:21:52.783Z,50.47
2023-02-15T21:24:22.093Z,48.89
2023-02-15T21:26:49.033Z,50.61
2023-02-15T21:29:25.062Z,50.29
2023-02-15T21:31:52.168Z,50.59
2023-02-15T21:34:18.980Z,51.14
2023-02-15T21:36:48.409Z,50.69
2023-02-15T21:39:24.319Z,50.04
2023-02-15T21:42:12.389Z,49.82
2023-02-15T21:44:58.349Z,48.88
2023-02-15T21:47:48.860Z,49.86
2023-02-15T21:50:37.425Z,49.09
2023-02-15T21:53:06.454Z,50.60
2023-02-15T21:55:33.300Z,49.91
2023-02-15T21:58:00.822Z,49.55
2023-02-15T22:00:29.117Z,49.23
2023-02-15T22:02:59.306Z,48.57
2023-02-15T22:05:31.480Z,50.14
2023-02-15T22:07:58.394Z,49.77
2023-02-15T22:10:32.857Z,50.51
2023-02-15T22:13:01.701Z,49.74
2023-02-15T22:15:35.530Z,50.08
2023-02-15T22:18:03.374Z,49.30
2023-02-15T22:20:29.975Z,48.85
2023-02-15T22:22:56.617Z,48.09
2023-02-15T22:25:25.651Z,49.30
2023-02-15T22:27:54.564Z,49.08
2023-02-15T22:30:32.269Z,49.51
2023-02-15T22:33:00.617Z,48.45
2023-02-15T22:35:30.406Z,49.75
2023-02-15T22:37:57.832Z,50.02
2023-02-15T22:40:33.581Z,50.94
2023-02-15T22:43:04.880Z,51.85
2023-02-15T22:45:33.234Z,52.42
2023-02-15T22:48:00.843Z,50.44
2023-02-15T22:50:32.711Z,51.13
2023-02-15T22:53:01.194Z,51.89
2023-02-15T22:55:33.069Z,50.96
2023-02-15T22:58:00.570Z,50.79
2023-02-15T23:00:33.797Z,49.71
2023-02-15T23:03:01.474Z,51.13
2023-02-15T23:05:31.324Z,51.19
2023-02-15T23:07:58.098Z,50.97
2023-02-15T23:10:26.447Z,49.90
2023-02-15T23:13:15.000Z,51.88
2023-02-15T23:15:43.738Z,50.98
2023-02-15T23:18:28.951Z,50.96
2023-02-15T23:21:06.744Z,52.32
2023-02-15T23:23:39.607Z,51.64
2023-02-15T23:26:17.564Z,52.07
2023-02-15T23:28:45.904Z,51.45
2023-02-15T23:31:19.900Z,51.25
2023-02-15T23:33:47.428Z,50.75
2023-02-15T23:36:27.069Z,50.34
2023-02-15T23:38:56.614Z,52.20
2023-02-15T23:41:29.312Z,51.50
2023-02-15T23:44:00.388Z,51.96
2023-02-15T23:46:35.162Z,51.15
2023-02-15T23:49:02.103Z,52.42
2023-02-15T23:51:31.924Z,52.12
2023-02-15T23:53:58.563Z,51.83
2023-02-15T23:56:25.132Z,51.60
2023-02-15T23:58:51.748Z,51.06
